Time;durP1;ratioP1;P1;durP2;ratioP2;P2;SDS_P1;SDS_P2;PMS_P1;PMS_P2;Temp;Humidity;BMP_temperature;BMP_pressure;BME280_temperature;BME280_humidity;BME280_pressure;Samples;Min_cycle;Max_cycle;Signal;HPM_P1;HPM_P2
2023/09/09 00:00:15;;;;;;;6.60;5.40;;;;;;;15.81;84.59;101203.84;105845;1269;99354;-81
2023/09/09 00:03:21;;;;;;;7.10;5.60;;;;;;;15.71;84.59;101204.58;106103;1270;104780;-80
2023/09/09 00:06:09;;;;;;;7.10;6.40;;;;;;;15.63;84.90;101205.81;105815;1271;99329;-80
2023/09/09 00:08:54;;;;;;;7.30;6.60;;;;;;;15.60;85.41;101206.39;105736;1273;99559;-82
2023/09/09 00:11:40;;;;;;;7.50;6.70;;;;;;;15.60;85.74;101206.27;105898;1270;99278;-80
2023/09/09 00:14:28;;;;;;;7.10;6.40;;;;;;;15.60;85.75;101204.82;105949;1270;99352;-81
2023/09/09 00:17:13;;;;;;;7.40;6.60;;;;;;;15.60;85.95;101204.11;105737;1270;103395;-80
2023/09/09 00:19:59;;;;;;;9.80;7.50;;;;;;;15.61;86.13;101200.16;105772;1271;99261;-80
2023/09/09 00:22:44;;;;;;;7.90;7.10;;;;;;;15.62;86.31;101199.27;105807;1269;99112;-81
2023/09/09 00:25:30;;;;;;;10.50;7.30;;;;;;;15.63;86.61;101199.62;105859;1270;99249;-80
2023/09/09 00:28:15;;;;;;;8.30;7.40;;;;;;;15.63;86.50;101199.46;105833;1270;99323;-81
2023/09/09 00:31:01;;;;;;;7.60;6.90;;;;;;;15.62;86.55;101201.74;105872;1268;104020;-81
2023/09/09 00:33:46;;;;;;;7.70;7.00;;;;;;;15.62;86.41;101199.29;105834;1272;99349;-80
2023/09/09 00:36:32;;;;;;;10.20;8.00;;;;;;;15.59;86.56;101196.92;105757;1269;98419;-81
2023/09/09 00:39:17;;;;;;;9.80;7.60;;;;;;;15.56;86.28;101200.23;105785;1273;99300;-80
2023/09/09 00:42:03;;;;;;;13.50;7.80;;;;;;;15.54;86.53;101200.35;105721;1273;99268;-81
2023/09/09 00:44:49;;;;;;;10.20;8.30;;;;;;;15.53;86.41;101200.72;105647;1270;129265;-80
2023/09/09 00:47:36;;;;;;;12.30;8.10;;;;;;;15.52;86.70;101199.23;105773;1270;100551;-80
2023/09/09 00:50:22;;;;;;;15.70;8.80;;;;;;;15.51;87.14;101196.10;105704;1269;99230;-81
2023/09/09 00:53:08;;;;;;;10.20;8.30;;;;;;;15.52;87.30;101197.23;105761;1270;99427;-81
2023/09/09 00:55:54;;;;;;;9.40;8.50;;;;;;;15.51;87.21;101194.95;105937;1272;99282;-81
2023/09/09 00:58:39;;;;;;;11.80;8.40;;;;;;;15.50;86.99;101199.48;105858;1270;104104;-82
2023/09/09 01:01:25;;;;;;;9.70;8.50;;;;;;;15.47;86.84;101200.42;105941;1272;99335;-81
2023/09/09 01:04:10;;;;;;;11.30;8.90;;;;;;;15.42;86.76;101200.88;105639;1270;107596;-80
2023/09/09 01:07:00;;;;;;;10.00;8.90;;;;;;;15.36;86.89;101202.55;105880;1272;99332;-81
2023/09/09 01:09:46;;;;;;;10.40;8.60;;;;;;;15.33;86.82;101203.51;105819;1273;99248;-81
2023/09/09 01:12:31;;;;;;;16.70;10.00;;;;;;;15.30;86.82;101201.52;105806;1269;103524;-80
2023/09/09 01:15:16;;;;;;;14.30;10.20;;;;;;;15.28;86.81;101200.96;105972;1271;99246;-81
2023/09/09 01:18:03;;;;;;;11.90;9.40;;;;;;;15.26;87.30;101199.36;105796;1270;99460;-81
2023/09/09 01:21:04;;;;;;;11.50;9.00;;;;;;;15.25;87.58;101197.74;105794;1270;99387;-81
2023/09/09 01:23:50;;;;;;;10.00;8.90;;;;;;;15.20;87.21;101197.19;105893;1272;98794;-81
2023/09/09 01:26:35;;;;;;;9.30;7.80;;;;;;;15.15;87.31;101200.45;105711;1270;104078;-81
2023/09/09 01:29:22;;;;;;;7.60;6.90;;;;;;;15.13;87.38;101201.98;105734;1270;99269;-81
2023/09/09 01:32:08;;;;;;;7.80;7.00;;;;;;;15.10;87.35;101197.95;105825;1270;99585;-82
2023/09/09 01:34:53;;;;;;;8.30;7.40;;;;;;;15.05;87.03;101196.09;105771;1271;99326;-81
2023/09/09 01:37:38;;;;;;;6.50;5.90;;;;;;;14.96;86.75;101190.58;105815;1273;99374;-81
2023/09/09 01:40:23;;;;;;;6.70;6.10;;;;;;;14.90;87.01;101188.89;105732;1270;102767;-81
2023/09/09 01:43:09;;;;;;;9.70;6.40;;;;;;;14.87;87.22;101187.84;105811;1270;99326;-80
2023/09/09 01:45:55;;;;;;;11.10;6.80;;;;;;;14.83;87.07;101188.06;105737;1270;99306;-80
2023/09/09 01:48:41;;;;;;;6.90;6.10;;;;;;;14.78;86.93;101185.17;105684;1270;99432;-80
2023/09/09 01:51:28;;;;;;;8.80;5.80;;;;;;;14.72;86.75;101182.90;105638;1273;99361;-83
2023/09/09 01:54:14;;;;;;;6.10;5.30;;;;;;;14.66;86.63;101185.53;105761;1270;102718;-82
2023/09/09 01:56:59;;;;;;;8.50;6.40;;;;;;;14.63;86.74;101185.05;105838;1269;99380;-81
2023/09/09 01:59:45;;;;;;;7.60;6.40;;;;;;;14.60;86.59;101189.10;105782;1270;99339;-82
2023/09/09 02:02:30;;;;;;;8.20;6.30;;;;;;;14.58;86.76;101189.05;105590;1270;99368;-79
2023/09/09 02:05:16;;;;;;;11.70;7.70;;;;;;;14.57;86.84;101191.66;105807;1270;99221;-83
2023/09/09 02:08:01;;;;;;;8.60;7.40;;;;;;;14.55;86.88;101189.70;105754;1270;103984;-81
2023/09/09 02:10:50;;;;;;;10.20;7.30;;;;;;;14.55;86.93;101194.63;105894;1270;100399;-82
2023/09/09 02:13:36;;;;;;;8.70;6.90;;;;;;;14.56;87.37;101196.83;105731;1270;99266;-82
2023/09/09 02:16:21;;;;;;;8.50;7.70;;;;;;;14.56;87.44;101195.46;105740;1269;99320;-82
2023/09/09 02:19:07;;;;;;;9.50;7.60;;;;;;;14.56;87.72;101195.84;105875;1270;99316;-80
2023/09/09 02:21:52;;;;;;;8.80;7.90;;;;;;;14.58;87.94;101198.34;105761;1270;102797;-81
2023/09/09 02:24:38;;;;;;;9.50;7.70;;;;;;;14.59;88.13;101197.27;105845;1271;100468;-80
2023/09/09 02:27:24;;;;;;;10.50;8.10;;;;;;;14.60;88.15;101198.27;105747;1272;99441;-80
2023/09/09 02:30:10;;;;;;;11.90;9.70;;;;;;;14.61;88.33;101201.71;105702;1269;99351;-81
2023/09/09 02:32:56;;;;;;;15.10;9.80;;;;;;;14.62;88.18;101204.34;105802;1270;101029;-80
2023/09/09 02:35:43;;;;;;;14.90;9.40;;;;;;;14.62;88.03;101210.02;105684;1270;102818;-81
2023/09/09 02:38:29;;;;;;;11.80;8.70;;;;;;;14.58;87.81;101210.50;105742;1272;99422;-83
2023/09/09 02:41:14;;;;;;;9.20;7.30;;;;;;;14.53;87.72;101210.59;105672;1273;100441;-79
2023/09/09 02:44:00;;;;;;;8.80;7.30;;;;;;;14.51;87.61;101209.03;105685;1270;99148;-81
2023/09/09 02:46:45;;;;;;;11.80;8.20;;;;;;;14.47;87.35;101206.94;105851;1272;98418;-80
2023/09/09 02:49:31;;;;;;;13.40;8.20;;;;;;;14.41;87.42;101205.40;105852;1270;103813;-80
2023/09/09 02:52:16;;;;;;;9.00;7.50;;;;;;;14.35;87.87;101205.08;105919;1271;99690;-80
2023/09/09 02:55:02;;;;;;;8.90;7.90;;;;;;;14.32;87.66;101203.35;105720;1270;99950;-80
2023/09/09 02:57:49;;;;;;;10.40;8.60;;;;;;;14.26;87.31;101206.14;105728;1273;99422;-80
2023/09/09 03:00:34;;;;;;;14.20;9.70;;;;;;;14.22;88.05;101206.27;105889;1275;100985;-82
2023/09/09 03:03:20;;;;;;;12.30;9.00;;;;;;;14.21;88.20;101208.41;105668;1270;102804;-80
2023/09/09 03:06:11;;;;;;;13.80;9.50;;;;;;;14.19;88.31;101209.64;105678;1268;107780;-79
2023/09/09 03:08:56;;;;;;;14.50;10.60;;;;;;;14.18;88.18;101208.92;105393;1269;99335;-80
2023/09/09 03:11:42;;;;;;;17.30;9.60;;;;;;;14.17;88.59;101211.95;105775;1270;97880;-80
2023/09/09 03:14:27;;;;;;;13.40;8.60;;;;;;;14.15;88.67;101208.48;105816;1273;99338;-80
2023/09/09 03:17:13;;;;;;;11.40;8.60;;;;;;;14.10;88.49;101209.78;105825;1273;102716;-81
2023/09/09 03:19:59;;;;;;;10.70;9.60;;;;;;;14.06;88.63;101208.66;105838;1270;100455;-80
2023/09/09 03:22:45;;;;;;;10.00;8.90;;;;;;;14.04;88.42;101208.11;105846;1270;99400;-81
2023/09/09 03:25:31;;;;;;;13.90;10.10;;;;;;;14.00;88.12;101207.24;105850;1271;99961;-81
2023/09/09 03:28:16;;;;;;;10.70;8.70;;;;;;;13.96;88.25;101208.86;105763;1270;99815;-80
2023/09/09 03:31:02;;;;;;;11.00;9.20;;;;;;;13.91;88.11;101210.89;105755;1270;102718;-80
2023/09/09 03:33:49;;;;;;;10.50;9.20;;;;;;;13.86;88.49;101210.06;105766;1270;100151;-79
2023/09/09 03:36:34;;;;;;;10.50;8.50;;;;;;;13.84;88.56;101203.58;105326;1272;99373;-79
2023/09/09 03:39:19;;;;;;;11.00;7.20;;;;;;;13.80;88.34;101201.31;105352;1271;99496;-79
2023/09/09 03:42:05;;;;;;;8.60;7.40;;;;;;;13.78;88.61;101202.38;105807;1270;97069;-81
2023/09/09 03:44:52;;;;;;;8.90;6.80;;;;;;;13.77;88.46;101203.05;105308;1273;103993;-80
2023/09/09 03:47:38;;;;;;;8.80;7.40;;;;;;;13.75;88.62;101209.21;105599;1273;99224;-80
2023/09/09 03:50:24;;;;;;;9.90;8.20;;;;;;;13.73;88.62;101206.58;105809;1270;99259;-82
2023/09/09 03:53:09;;;;;;;9.80;8.00;;;;;;;13.71;88.40;101201.30;105622;1273;99132;-80
2023/09/09 03:55:55;;;;;;;10.70;9.10;;;;;;;13.69;88.56;101197.40;105892;1271;100939;-80
2023/09/09 03:58:43;;;;;;;12.10;8.70;;;;;;;13.67;88.73;101197.80;105882;1274;104113;-80
2023/09/09 04:01:29;;;;;;;12.90;9.90;;;;;;;13.66;88.79;101196.36;105812;1270;99344;-80
2023/09/09 04:04:14;;;;;;;9.80;8.80;;;;;;;13.64;88.63;101195.92;105690;1269;99357;-79
2023/09/09 04:07:01;;;;;;;11.50;9.50;;;;;;;13.61;88.95;101200.74;105749;1270;99338;-82
2023/09/09 04:09:46;;;;;;;11.50;9.00;;;;;;;13.59;88.90;101198.02;105660;1273;99114;-80
2023/09/09 04:12:32;;;;;;;12.90;9.80;;;;;;;13.55;88.91;101193.52;105656;1270;102807;-81
2023/09/09 04:15:17;;;;;;;13.60;9.50;;;;;;;13.51;88.69;101199.04;105707;1270;99342;-82
2023/09/09 04:18:03;;;;;;;11.50;7.70;;;;;;;13.49;89.01;101201.23;105682;1271;99431;-82
2023/09/09 04:20:48;;;;;;;11.00;7.10;;;;;;;13.47;89.12;101203.62;105635;1271;100661;-80
2023/09/09 04:23:34;;;;;;;8.30;6.70;;;;;;;13.45;88.78;101209.98;105581;1274;99855;-82
2023/09/09 04:26:20;;;;;;;7.50;6.70;;;;;;;13.42;88.74;101209.86;105441;1270;102715;-81
2023/09/09 04:29:06;;;;;;;6.80;6.10;;;;;;;13.39;88.50;101213.05;105661;1269;107736;-81
2023/09/09 04:31:51;;;;;;;11.30;6.10;;;;;;;13.37;88.56;101212.09;105521;1273;99339;-82
2023/09/09 04:34:37;;;;;;;7.10;6.00;;;;;;;13.36;88.73;101216.74;105470;1269;99867;-81
2023/09/09 04:37:24;;;;;;;6.10;5.50;;;;;;;13.34;88.61;101221.64;105794;1270;97634;-80
2023/09/09 04:40:11;;;;;;;6.40;5.70;;;;;;;13.31;88.83;101223.60;106335;1271;102734;-80
2023/09/09 04:42:56;;;;;;;8.10;6.40;;;;;;;13.29;88.72;101223.87;105753;1270;100461;-81
2023/09/09 04:45:41;;;;;;;8.00;6.20;;;;;;;13.27;88.84;101224.63;105683;1270;99243;-81
2023/09/09 04:48:27;;;;;;;6.60;5.90;;;;;;;13.25;88.84;101226.34;105793;1270;99326;-81
2023/09/09 04:51:13;;;;;;;7.10;6.40;;;;;;;13.22;88.96;101225.80;105865;1270;99949;-81
2023/09/09 04:53:58;;;;;;;11.10;7.00;;;;;;;13.22;89.36;101226.48;105891;1270;102854;-81
2023/09/09 04:56:46;;;;;;;7.90;7.10;;;;;;;13.24;89.46;101227.73;105955;1270;99290;-81
2023/09/09 04:59:33;;;;;;;8.70;7.00;;;;;;;13.26;89.71;101227.30;105882;1272;100579;-82
2023/09/09 05:02:18;;;;;;;10.30;7.20;;;;;;;13.27;90.18;101224.80;105817;1273;97141;-82
2023/09/09 05:05:05;;;;;;;11.00;8.70;;;;;;;13.31;90.23;101226.16;105714;1270;100588;-80
2023/09/09 05:07:51;;;;;;;12.60;8.10;;;;;;;13.34;90.45;101226.86;105771;1270;102750;-83
2023/09/09 05:10:37;;;;;;;9.30;8.40;;;;;;;13.39;90.81;101222.23;105778;1269;99769;-81
2023/09/09 05:13:23;;;;;;;11.40;8.60;;;;;;;13.46;91.02;101223.36;105816;1284;106897;-81
2023/09/09 05:16:09;;;;;;;12.90;9.20;;;;;;;13.51;91.70;101218.33;105850;1271;99320;-81
2023/09/09 05:18:55;;;;;;;11.50;9.30;;;;;;;13.59;92.16;101217.51;105938;1270;99240;-81
2023/09/09 05:21:40;;;;;;;13.00;9.90;;;;;;;13.67;92.40;101219.41;105723;1273;104054;-81
2023/09/09 05:24:26;;;;;;;15.50;9.60;;;;;;;13.73;92.96;101218.38;105840;1270;100562;-81
2023/09/09 05:27:11;;;;;;;11.20;8.60;;;;;;;13.80;93.39;101218.63;105898;1270;99263;-81
2023/09/09 05:29:57;;;;;;;11.60;7.80;;;;;;;13.86;93.68;101219.27;105752;1273;99691;-82
2023/09/09 05:32:42;;;;;;;8.10;7.30;;;;;;;13.92;93.90;101219.98;105819;1269;99398;-81
2023/09/09 05:35:28;;;;;;;10.40;7.70;;;;;;;13.99;94.39;101220.58;105729;1273;103408;-81
2023/09/09 05:38:14;;;;;;;10.20;8.10;;;;;;;14.04;94.78;101219.66;105733;1272;99955;-81
2023/09/09 05:40:59;;;;;;;11.90;8.10;;;;;;;14.07;95.12;101220.90;105861;1268;99418;-81
2023/09/09 05:43:45;;;;;;;18.80;8.10;;;;;;;14.12;95.53;101220.36;105911;1269;99508;-81
2023/09/09 05:46:30;;;;;;;11.80;9.00;;;;;;;14.15;95.75;101221.67;105850;1273;99780;-81
2023/09/09 05:49:15;;;;;;;12.80;10.00;;;;;;;14.19;96.02;101221.53;105878;1270;104508;-81
2023/09/09 05:52:01;;;;;;;17.90;10.40;;;;;;;14.22;96.32;101222.10;105909;1273;99420;-81
2023/09/09 05:54:47;;;;;;;13.00;11.00;;;;;;;14.24;96.64;101220.30;105864;1270;99450;-82
2023/09/09 05:57:34;;;;;;;16.10;13.80;;;;;;;14.27;97.20;101221.73;105597;1270;99370;-80
2023/09/09 06:00:20;;;;;;;15.30;13.30;;;;;;;14.33;98.12;101222.67;105858;1270;99803;-81
2023/09/09 06:03:05;;;;;;;20.20;16.00;;;;;;;14.40;98.60;101223.92;105724;1273;102707;-81
2023/09/09 06:05:51;;;;;;;19.10;16.90;;;;;;;14.48;99.32;101221.88;105822;1270;99176;-82
2023/09/09 06:08:37;;;;;;;23.10;18.70;;;;;;;14.59;99.86;101226.48;105873;1271;100093;-81
2023/09/09 06:11:23;;;;;;;22.40;20.00;;;;;;;14.69;100.00;101226.95;105712;1270;99355;-82
2023/09/09 06:14:09;;;;;;;22.60;20.20;;;;;;;14.79;100.00;101230.45;105843;1273;99358;-81
2023/09/09 06:16:54;;;;;;;23.30;20.80;;;;;;;14.90;100.00;101232.80;105912;1273;102794;-81
2023/09/09 06:19:40;;;;;;;26.40;20.70;;;;;;;15.03;100.00;101235.11;105784;1269;100453;-81
2023/09/09 06:22:26;;;;;;;24.50;20.20;;;;;;;15.14;100.00;101238.98;105658;1284;99332;-81
2023/09/09 06:25:12;;;;;;;22.10;19.80;;;;;;;15.25;100.00;101235.67;105762;1273;99777;-81
2023/09/09 06:27:57;;;;;;;27.50;20.10;;;;;;;15.37;100.00;101239.15;105844;1272;99460;-81
2023/09/09 06:30:44;;;;;;;23.10;19.90;;;;;;;15.49;100.00;101242.26;105829;1272;103920;-81
2023/09/09 06:33:29;;;;;;;22.60;19.90;;;;;;;15.61;100.00;101248.40;105790;1273;100475;-81
2023/09/09 06:36:16;;;;;;;22.90;19.30;;;;;;;15.73;100.00;101250.09;105801;1276;99326;-81
2023/09/09 06:39:03;;;;;;;23.20;19.50;;;;;;;15.87;100.00;101253.90;105818;1272;99310;-82
2023/09/09 06:41:49;;;;;;;22.80;20.40;;;;;;;15.99;100.00;101253.50;105880;1272;99336;-81
2023/09/09 06:44:35;;;;;;;23.00;19.40;;;;;;;16.11;100.00;101259.36;105929;1270;103899;-81
2023/09/09 06:47:21;;;;;;;22.20;19.80;;;;;;;16.22;100.00;101261.67;105964;1270;99280;-81
2023/09/09 06:50:06;;;;;;;22.30;19.40;;;;;;;16.34;100.00;101262.80;105951;1274;100676;-82
2023/09/09 06:52:52;;;;;;;21.30;19.00;;;;;;;16.45;100.00;101258.42;105771;1273;99864;-81
2023/09/09 06:55:38;;;;;;;24.50;20.40;;;;;;;16.55;100.00;101261.10;106000;1270;99809;-81
2023/09/09 06:58:24;;;;;;;20.30;17.10;;;;;;;16.66;100.00;101263.27;105963;1273;102973;-81
2023/09/09 07:01:11;;;;;;;21.70;17.30;;;;;;;16.77;100.00;101265.29;105904;1271;100274;-81
2023/09/09 07:03:57;;;;;;;19.10;16.30;;;;;;;16.88;100.00;101265.25;105843;1272;99242;-81
2023/09/09 07:06:43;;;;;;;20.80;16.70;;;;;;;17.01;100.00;101267.56;105759;1273;99394;-81
2023/09/09 07:09:28;;;;;;;18.80;16.40;;;;;;;17.12;100.00;101266.33;105865;1270;99265;-82
2023/09/09 07:12:14;;;;;;;20.30;15.90;;;;;;;17.24;100.00;101262.53;105908;1270;102794;-81
2023/09/09 07:14:59;;;;;;;18.30;15.50;;;;;;;17.35;100.00;101261.03;105920;1271;100113;-81
2023/09/09 07:17:46;;;;;;;16.40;14.20;;;;;;;17.46;100.00;101263.98;106139;1273;99332;-81
2023/09/09 07:20:31;;;;;;;19.30;15.90;;;;;;;17.58;100.00;101267.26;105890;1282;99330;-82
2023/09/09 07:23:18;;;;;;;17.70;14.90;;;;;;;17.69;100.00;101270.45;105909;1272;99389;-81
2023/09/09 07:26:04;;;;;;;16.10;14.20;;;;;;;17.80;100.00;101267.80;106508;1273;104629;-81
2023/09/09 07:28:49;;;;;;;18.00;14.10;;;;;;;17.92;100.00;101262.93;105859;1273;99317;-81
2023/09/09 07:31:35;;;;;;;18.00;14.60;;;;;;;18.01;100.00;101260.61;105816;1273;99265;-81
2023/09/09 07:34:20;;;;;;;19.30;14.80;;;;;;;18.09;100.00;101261.25;105928;1273;97928;-82
2023/09/09 07:37:05;;;;;;;24.80;16.20;;;;;;;18.19;100.00;101261.48;106082;1273;99847;-82
2023/09/09 07:39:51;;;;;;;18.00;15.10;;;;;;;18.29;100.00;101259.10;105862;1272;102764;-81
2023/09/09 07:42:37;;;;;;;21.30;15.20;;;;;;;18.38;100.00;101256.36;105866;1273;99339;-81
2023/09/09 07:45:22;;;;;;;21.60;14.30;;;;;;;18.45;100.00;101251.44;105852;1270;99418;-82
2023/09/09 07:48:08;;;;;;;16.40;14.00;;;;;;;18.55;99.96;101244.14;105844;1270;99345;-82
2023/09/09 07:50:55;;;;;;;19.00;15.90;;;;;;;18.66;99.97;101246.79;105868;1272;100806;-81
2023/09/09 07:53:41;;;;;;;17.40;14.90;;;;;;;18.78;99.75;101245.61;105889;1270;104029;-81
2023/09/09 07:56:26;;;;;;;16.00;14.30;;;;;;;18.90;99.20;101244.58;105784;1272;99245;-81
2023/09/09 07:59:12;;;;;;;17.40;14.00;;;;;;;19.02;99.16;101240.34;105999;1273;99310;-82
2023/09/09 08:01:57;;;;;;;16.90;13.30;;;;;;;19.14;98.21;101241.24;105883;1272;99290;-81
2023/09/09 08:04:43;;;;;;;17.40;14.20;;;;;;;19.26;97.44;101239.34;105983;1271;99284;-82
2023/09/09 08:07:28;;;;;;;17.60;14.40;;;;;;;19.38;96.94;101239.30;106030;1273;102741;-82
2023/09/09 08:10:16;;;;;;;21.70;13.80;;;;;;;19.50;96.73;101235.05;105912;1270;100657;-82
2023/09/09 08:13:02;;;;;;;19.10;13.10;;;;;;;19.61;95.78;101233.92;105966;1280;100714;-81
2023/09/09 08:15:47;;;;;;;21.50;12.30;;;;;;;19.73;95.62;101234.72;105791;1270;99418;-82
2023/09/09 08:18:32;;;;;;;13.90;12.20;;;;;;;19.84;95.61;101231.92;105859;1273;97738;-82
2023/09/09 08:21:17;;;;;;;14.80;11.30;;;;;;;19.95;95.16;101229.48;105942;1270;102739;-82
2023/09/09 08:24:03;;;;;;;14.00;11.70;;;;;;;20.05;94.45;101229.97;105870;1273;100436;-82
2023/09/09 08:26:49;;;;;;;17.00;12.70;;;;;;;20.15;93.84;101230.85;105849;1273;99425;-82
2023/09/09 08:29:35;;;;;;;13.70;11.70;;;;;;;20.25;93.23;101230.80;105743;1270;99247;-81
2023/09/09 08:32:21;;;;;;;14.10;12.60;;;;;;;20.35;93.47;101229.45;105992;1269;99294;-82
2023/09/09 08:35:06;;;;;;;13.50;11.60;;;;;;;20.46;93.00;101226.08;105760;1270;102740;-82
2023/09/09 08:37:52;;;;;;;15.10;12.20;;;;;;;20.58;92.54;101230.77;105763;1272;100436;-81
2023/09/09 08:40:49;;;;;;;14.00;11.50;;;;;;;20.69;92.48;101233.29;105947;1274;99342;-81
2023/09/09 08:43:43;;;;;;;13.90;11.50;;;;;;;20.80;92.30;101237.30;105857;1270;99227;-81
2023/09/09 08:46:29;;;;;;;13.90;10.60;;;;;;;20.92;91.74;101242.85;105891;1269;99902;-81
2023/09/09 08:49:17;;;;;;;15.80;10.20;;;;;;;21.04;91.85;101247.77;105921;1270;103505;-81
2023/09/09 08:52:08;;;;;;;10.70;9.70;;;;;;;21.15;91.29;101250.08;105927;1270;99220;-81
2023/09/09 08:54:54;;;;;;;13.90;10.40;;;;;;;21.25;91.10;101247.35;105979;1270;101157;-80
2023/09/09 08:57:39;;;;;;;12.10;9.70;;;;;;;21.34;90.97;101239.30;105695;1270;99332;-81
2023/09/09 09:00:32;;;;;;;10.70;9.60;;;;;;;21.44;90.28;101238.74;105899;1273;99332;-81
2023/09/09 09:03:19;;;;;;;11.10;9.40;;;;;;;21.55;89.58;101241.13;105979;1273;102712;-81
2023/09/09 09:06:05;;;;;;;13.50;9.20;;;;;;;21.63;89.25;101240.32;105899;1273;99410;-81
2023/09/09 09:08:50;;;;;;;11.10;8.20;;;;;;;21.72;88.86;101244.64;105894;1274;99455;-81
2023/09/09 09:11:36;;;;;;;9.30;8.40;;;;;;;21.80;88.69;101242.07;105848;1269;99998;-81
2023/09/09 09:14:21;;;;;;;14.50;9.10;;;;;;;21.88;87.88;101239.99;105859;1272;99780;-81
2023/09/09 09:17:07;;;;;;;11.60;8.40;;;;;;;21.95;87.28;101236.08;105858;1270;102734;-81
2023/09/09 09:19:53;;;;;;;10.10;8.30;;;;;;;22.04;87.48;101236.79;105800;1273;99204;-81
2023/09/09 09:22:39;;;;;;;11.60;7.90;;;;;;;22.14;87.19;101234.40;105795;1272;99358;-81
2023/09/09 09:25:25;;;;;;;10.60;8.10;;;;;;;22.24;85.90;101230.16;105781;1270;99571;-81
2023/09/09 09:28:14;;;;;;;14.90;8.10;;;;;;;22.32;85.52;101228.31;105671;1273;98890;-81
2023/09/09 09:31:00;;;;;;;11.90;7.80;;;;;;;22.42;85.22;101227.44;105640;1271;102716;-81
2023/09/09 09:33:47;;;;;;;9.40;8.30;;;;;;;22.53;84.68;101222.36;105666;1270;100010;-81
2023/09/09 09:36:34;;;;;;;17.90;8.00;;;;;;;22.63;84.50;101219.48;105638;1275;99268;-81
2023/09/09 09:39:20;;;;;;;12.30;7.40;;;;;;;22.72;83.45;101224.92;105617;1270;99460;-81
2023/09/09 09:42:09;;;;;;;10.80;8.00;;;;;;;22.81;83.31;101228.39;105747;1270;99797;-81
2023/09/09 09:45:08;;;;;;;9.30;7.80;;;;;;;22.89;83.30;101229.42;105819;1271;102773;-81
2023/09/09 09:47:55;;;;;;;8.90;8.10;;;;;;;22.95;82.56;101229.61;105735;1274;99381;-81
2023/09/09 09:50:40;;;;;;;8.40;6.60;;;;;;;23.04;81.75;101235.46;105689;1272;99278;-81
2023/09/09 09:53:26;;;;;;;15.30;7.40;;;;;;;23.12;80.58;101236.34;105788;1270;99342;-82
2023/09/09 09:56:12;;;;;;;8.70;6.60;;;;;;;23.20;79.64;101234.91;105732;1270;99869;-80
2023/09/09 09:58:57;;;;;;;7.40;6.70;;;;;;;23.26;79.34;101234.27;105781;1270;104074;-81
2023/09/09 10:01:43;;;;;;;8.10;7.20;;;;;;;23.32;79.06;101235.63;105913;1270;100864;-82
2023/09/09 10:04:37;;;;;;;13.80;7.10;;;;;;;23.41;78.56;101236.73;105871;1270;99236;-81
2023/09/09 10:07:24;;;;;;;11.30;6.90;;;;;;;23.48;77.87;101235.77;105794;1270;99151;-81
2023/09/09 10:10:15;;;;;;;8.20;7.30;;;;;;;23.55;77.49;101236.40;105869;1270;99159;-81
2023/09/09 10:13:05;;;;;;;8.70;6.50;;;;;;;23.61;76.77;101231.43;105877;1270;102738;-81
2023/09/09 10:15:51;;;;;;;9.90;6.30;;;;;;;23.67;75.98;101226.80;105808;1270;99269;-81
2023/09/09 10:18:38;;;;;;;8.30;5.90;;;;;;;23.74;76.00;101224.34;105854;1270;99901;-81
2023/09/09 10:21:26;;;;;;;8.10;6.30;;;;;;;23.82;75.47;101224.80;105792;1270;100025;-81
2023/09/09 10:24:16;;;;;;;6.40;5.70;;;;;;;23.89;74.39;101224.55;105870;1270;97183;-80
2023/09/09 10:27:05;;;;;;;8.60;6.20;;;;;;;23.95;75.27;101223.36;106094;1270;104050;-81
2023/09/09 10:29:53;;;;;;;7.00;6.30;;;;;;;24.04;74.56;101220.11;105984;1270;99255;-81
2023/09/09 10:32:40;;;;;;;8.00;5.90;;;;;;;24.10;73.29;101212.46;105917;1273;99852;-80
2023/09/09 10:35:27;;;;;;;11.50;5.90;;;;;;;24.17;73.69;101213.67;106335;1270;99240;-81
2023/09/09 10:38:14;;;;;;;8.80;5.50;;;;;;;24.25;73.40;101214.23;106107;1273;99211;-81
2023/09/09 10:41:02;;;;;;;5.80;5.30;;;;;;;24.31;71.76;101213.56;106003;1270;103955;-81
2023/09/09 10:43:48;;;;;;;5.40;4.90;;;;;;;24.36;70.72;101214.70;106221;1270;99111;-81
2023/09/09 10:46:37;;;;;;;11.40;5.40;;;;;;;24.42;70.32;101216.00;106109;1273;99841;-81
2023/09/09 10:49:27;;;;;;;10.80;5.60;;;;;;;24.48;70.11;101216.42;106015;1270;99893;-81
2023/09/09 10:52:38;;;;;;;6.70;5.50;;;;;;;24.54;69.82;101209.73;106038;1271;97169;-81
2023/09/09 10:55:30;;;;;;;8.20;5.20;;;;;;;24.58;69.31;101201.42;105968;1274;102718;-82
2023/09/09 10:58:18;;;;;;;7.90;4.60;;;;;;;24.61;67.99;101203.58;105909;1273;99302;-82
2023/09/09 11:01:07;;;;;;;8.10;5.20;;;;;;;24.66;68.21;101208.27;105725;1275;99354;-83
2023/09/09 11:03:53;;;;;;;8.60;4.70;;;;;;;24.69;67.35;101206.27;105733;1270;99240;-82
2023/09/09 11:06:38;;;;;;;6.50;4.90;;;;;;;24.73;66.92;101207.44;105965;1270;99170;-82
2023/09/09 11:09:30;;;;;;;8.90;5.20;;;;;;;24.77;67.18;101205.45;105883;1271;102873;-83
2023/09/09 11:12:17;;;;;;;6.30;5.10;;;;;;;24.80;67.35;101201.10;105822;1270;100509;-82
2023/09/09 11:15:11;;;;;;;12.20;5.50;;;;;;;24.83;67.64;101201.38;105717;1271;99125;-83
2023/09/09 11:17:59;;;;;;;6.50;5.70;;;;;;;24.88;68.33;101201.35;105783;1272;99347;-82
2023/09/09 11:20:44;;;;;;;8.90;5.50;;;;;;;24.92;67.66;101203.45;105803;1270;99258;-82
2023/09/09 11:23:32;;;;;;;6.10;5.50;;;;;;;24.94;67.56;101198.54;105863;1273;102771;-82
2023/09/09 11:26:18;;;;;;;6.10;5.50;;;;;;;24.98;67.74;101197.79;105836;1270;99337;-83
2023/09/09 11:29:03;;;;;;;7.90;5.40;;;;;;;25.02;67.70;101199.29;105797;1271;99299;-82
2023/09/09 11:31:49;;;;;;;7.20;5.70;;;;;;;25.04;66.74;101202.20;105760;1270;100005;-82
2023/09/09 11:34:35;;;;;;;7.60;5.30;;;;;;;25.07;66.53;101198.77;106026;1270;99957;-82
2023/09/09 11:37:24;;;;;;;7.10;5.50;;;;;;;25.12;66.91;101197.63;105771;1273;104082;-80
2023/09/09 11:40:11;;;;;;;11.10;5.90;;;;;;;25.17;67.29;101194.37;105844;1271;99328;-81
2023/09/09 11:42:56;;;;;;;10.00;5.00;;;;;;;25.23;67.32;101193.55;105770;1270;99436;-82
2023/09/09 11:45:42;;;;;;;7.60;5.40;;;;;;;25.30;67.19;101193.91;105952;1270;99281;-82
2023/09/09 11:48:27;;;;;;;10.00;5.80;;;;;;;25.35;67.16;101197.60;105782;1271;99222;-82
2023/09/09 11:51:14;;;;;;;9.90;6.10;;;;;;;25.39;67.39;101196.46;105877;1272;103949;-82
2023/09/09 11:54:00;;;;;;;6.30;5.60;;;;;;;25.44;67.11;101196.50;105861;1271;100387;-82
2023/09/09 11:56:46;;;;;;;11.10;6.10;;;;;;;25.47;65.99;101195.41;105752;1272;106347;-80
2023/09/09 11:59:31;;;;;;;5.40;4.90;;;;;;;25.50;66.19;101195.75;105740;1270;99226;-82
2023/09/09 12:02:22;;;;;;;7.90;6.00;;;;;;;25.55;66.09;101197.30;105773;1273;99253;-80
2023/09/09 12:05:07;;;;;;;6.50;5.30;;;;;;;25.59;66.27;101196.81;105722;1273;102712;-81
2023/09/09 12:07:53;;;;;;;12.60;6.10;;;;;;;25.65;66.63;101193.75;105856;1269;99316;-82
2023/09/09 12:10:39;;;;;;;14.40;6.90;;;;;;;25.71;66.42;101196.95;105931;1270;99312;-81
2023/09/09 12:13:24;;;;;;;10.50;6.10;;;;;;;25.75;65.54;101197.79;105880;1270;99403;-82
2023/09/09 12:16:11;;;;;;;9.80;5.40;;;;;;;25.79;65.61;101195.53;105916;1270;98024;-82
2023/09/09 12:18:57;;;;;;;9.20;5.40;;;;;;;25.85;65.26;101194.83;105874;1270;102708;-82
2023/09/09 12:21:46;;;;;;;9.40;5.70;;;;;;;25.88;64.59;101192.79;105823;1273;100433;-82
2023/09/09 12:24:41;;;;;;;9.90;5.10;;;;;;;25.89;64.24;101189.50;105831;1270;99421;-82
2023/09/09 12:27:43;;;;;;;9.60;5.00;;;;;;;25.90;64.66;101184.99;105651;1270;99243;-82
2023/09/09 12:30:35;;;;;;;7.20;4.80;;;;;;;25.93;63.88;101185.10;105833;1270;101030;-82
2023/09/09 12:33:21;;;;;;;6.40;5.10;;;;;;;25.95;63.84;101179.95;105873;1271;104491;-81